Panagia Faneromeni — SW9785 — position and weather

sailwx.info

Track history (hours):
 
Tides and Currents Weather Stations Pressure Air Temp Water Temp Dewpoint Dewpoint Depression Visibility Wind Speed Wind Dir Waves Ship Positions

Panagia Faneromeni

Last reported at 2014-Nov-25 00:30 UTC. Time now 2014-Nov-25 00:44 UTC.
Position N 36°47' E 024°35'.

Length 33 m; draft 2 m.

Type: Ship. MMSI: 237071900.

Date/timePositionNaut miles runAvg speedWind from/ knotsBaromVisibWave heightAir tempDewpointWater temp
2014-Nov-25 00:30N 36°47' E 024°35'0 0.0
2014-Nov-24 23:23N 36°47' E 024°35'0 0.0
2014-Nov-24 22:05N 36°47' E 024°35'0 0.0
2014-Nov-24 21:11N 36°47' E 024°35'0 0.0
2014-Nov-24 20:30N 36°47' E 024°35'0 0.0
2014-Nov-24 19:29N 36°47' E 024°35'0 0.0
2014-Nov-24 18:30N 36°47' E 024°35'0 0.0
2014-Nov-24 17:29N 36°47' E 024°35'0 0.0
2014-Nov-24 16:30N 36°47' E 024°35'0 0.0
2014-Nov-24 15:29N 36°47' E 024°35'0 0.0
2014-Nov-24 14:24N 36°47' E 024°35'0 0.0
2014-Nov-24 13:29N 36°47' E 024°35'0 0.0
2014-Nov-24 12:29N 36°47' E 024°35'0 0.0
2014-Nov-24 11:29N 36°47' E 024°35'0 0.0
2014-Nov-24 10:18N 36°47' E 024°35'0 0.0
2014-Nov-24 09:29N 36°47' E 024°35'0 0.0
2014-Nov-24 08:32N 36°47' E 024°35'0 0.0
2014-Nov-24 07:33N 36°47' E 024°35'0 0.0
2014-Nov-24 06:29N 36°47' E 024°35'0 0.0
2014-Nov-24 05:29N 36°47' E 024°35'0 0.0
2014-Nov-24 04:30N 36°47' E 024°35'0 0.0
2014-Nov-24 03:30N 36°47' E 024°35'0 0.0
2014-Nov-24 02:23N 36°47' E 024°35'0 0.0
2014-Nov-24 01:29N 36°47' E 024°35'0 0.0
2014-Nov-24 00:24N 36°47' E 024°35'0 0.0
2014-Nov-23 23:30N 36°47' E 024°35'0 0.0
2014-Nov-23 22:30N 36°47' E 024°35'0 0.0
2014-Nov-23 21:23N 36°47' E 024°35'0 0.0
2014-Nov-23 20:23N 36°47' E 024°35'0 0.0
2014-Nov-23 19:29N 36°47' E 024°35'0 0.0
2014-Nov-23 18:29N 36°47' E 024°35'0 0.0
2014-Nov-23 17:24N 36°47' E 024°35'0 0.0
2014-Nov-23 16:18N 36°47' E 024°35'0 0.0
2014-Nov-23 14:11N 36°47' E 024°35'2 1.2
2014-Nov-23 12:20N 36°46' E 024°32'2 2.8
2014-Nov-23 11:33N 36°47' E 024°35'0 0.0
2014-Nov-23 07:26N 36°47' E 024°35'0 0.0
2014-Nov-23 06:13N 36°47' E 024°35'0 0.0
2014-Nov-23 04:24N 36°47' E 024°35'0 0.0
2014-Nov-23 02:18N 36°47' E 024°35'0 0.0
2014-Nov-23 00:31N 36°47' E 024°35'0 0.0
2014-Nov-22 23:24N 36°47' E 024°35'0 0.0
2014-Nov-22 19:31N 36°47' E 024°35'0 0.0
2014-Nov-22 18:06N 36°47' E 024°35'0 0.0
2014-Nov-22 17:25N 36°47' E 024°35'0 0.0
2014-Nov-22 16:06N 36°47' E 024°35'0 0.0
2014-Nov-22 15:30N 36°47' E 024°35'0 0.2
2014-Nov-22 14:33N 36°47' E 024°35'0 0.2
2014-Nov-22 13:31N 36°47' E 024°35'0 0.0
2014-Nov-22 12:30N 36°47' E 024°35'0 0.0
2014-Nov-22 11:30N 36°47' E 024°35'0 0.0
2014-Nov-22 10:24N 36°47' E 024°35'0 0.0
2014-Nov-22 09:30N 36°47' E 024°35'0 0.0
2014-Nov-22 08:20N 36°47' E 024°35'0 0.0
2014-Nov-22 07:27N 36°47' E 024°35'0 0.0
2014-Nov-22 06:15N 36°47' E 024°35'0 0.0
2014-Nov-22 05:32N 36°47' E 024°35'0 0.0
2014-Nov-22 03:26N 36°47' E 024°35'0 0.0
2014-Nov-22 02:32N 36°47' E 024°35'0 0.0
2014-Nov-22 01:32N 36°47' E 024°35'0 0.0
2014-Nov-21 23:11N 36°47' E 024°35'0 0.0
2014-Nov-21 22:26N 36°47' E 024°35'0 0.0
2014-Nov-21 21:32N 36°47' E 024°35'0 0.0
2014-Nov-21 20:14N 36°47' E 024°35'0 0.0
2014-Nov-21 19:27N 36°47' E 024°35'0 0.0
2014-Nov-21 17:08N 36°47' E 024°35'0 0.0
2014-Nov-21 15:32N 36°47' E 024°35'0 0.0
2014-Nov-21 14:33N 36°47' E 024°35'0 0.0
2014-Nov-21 13:33N 36°47' E 024°35'3 2.4
2014-Nov-21 12:25N 36°46' E 024°32'3 3.1
2014-Nov-21 11:33N 36°47' E 024°35'0 0.0
2014-Nov-21 10:26N 36°47' E 024°35'0 0.0
2014-Nov-21 09:28N 36°47' E 024°35'0 0.0
2014-Nov-21 08:26N 36°47' E 024°35'0 0.0
2014-Nov-21 07:32N 36°47' E 024°35'0 0.0
2014-Nov-21 06:20N 36°47' E 024°35'1 1.7
2014-Nov-21 05:30N 36°46' E 024°33'1 1.4
2014-Nov-21 04:26N 36°47' E 024°35'0 0.0
2014-Nov-21 03:20N 36°47' E 024°35'0 0.0
2014-Nov-21 00:32N 36°47' E 024°35'0 0.0
2014-Nov-20 23:20N 36°47' E 024°35'0 0.0
2014-Nov-20 22:20N 36°47' E 024°35'0 0.0
2014-Nov-20 21:31N 36°47' E 024°35'0 0.0
2014-Nov-20 20:19N 36°47' E 024°35'0 0.0
2014-Nov-20 19:08N 36°47' E 024°35'0 0.0
2014-Nov-20 18:32N 36°47' E 024°35'0 0.0
2014-Nov-20 17:26N 36°47' E 024°35'0 0.0
2014-Nov-20 16:31N 36°47' E 024°35'0 0.1
2014-Nov-20 15:29N 36°47' E 024°35'0 0.1
2014-Nov-20 14:33N 36°47' E 024°35'0 0.2
2014-Nov-20 13:31N 36°47' E 024°35'3 2.3
2014-Nov-20 12:24N 36°46' E 024°32'3 3.1
2014-Nov-20 11:33N 36°47' E 024°35'0 0.1
2014-Nov-20 09:27N 36°47' E 024°35'0 0.0
2014-Nov-20 08:33N 36°47' E 024°35'0 0.2
2014-Nov-20 07:16N 36°47' E 024°35'0 0.0
2014-Nov-20 06:28N 36°47' E 024°35'1 1.1
2014-Nov-20 05:33N 36°46' E 024°34'1 1.0
2014-Nov-20 04:31N 36°47' E 024°35'3 2.9
2014-Nov-20 03:33N 36°46' E 024°32'0 0.0
2014-Nov-20 02:34N 36°46' E 024°32'0 0.0
2014-Nov-20 01:28N 36°46' E 024°32'0 0.0
2014-Nov-19 22:27N 36°46' E 024°32'0 0.0
2014-Nov-19 21:33N 36°46' E 024°32'0 0.0
2014-Nov-19 20:33N 36°46' E 024°32'0 0.0
2014-Nov-19 19:28N 36°46' E 024°32'0 0.0
2014-Nov-19 18:28N 36°46' E 024°32'0 0.0
2014-Nov-19 17:27N 36°46' E 024°32'0 0.0
2014-Nov-19 16:33N 36°46' E 024°32'0 0.0
2014-Nov-19 15:27N 36°46' E 024°32'0 0.0
2014-Nov-19 14:33N 36°46' E 024°32'1 0.8
2014-Nov-19 13:31N 36°46' E 024°33'1 1.0
2014-Nov-19 12:33N 36°46' E 024°32'3 2.7
2014-Nov-19 11:30N 36°47' E 024°35'0 0.0
2014-Nov-19 10:24N 36°47' E 024°35'1 0.6
2014-Nov-19 09:26N 36°47' E 024°34'0 0.1
2014-Nov-19 05:33N 36°46' E 024°34'1 1.0
2014-Nov-19 04:30N 36°47' E 024°35'0 0.0
2014-Nov-19 03:30N 36°47' E 024°35'0 0.0
2014-Nov-19 02:24N 36°47' E 024°35'0 0.0
2014-Nov-19 01:30N 36°47' E 024°35'0 0.0
2014-Nov-19 00:30N 36°47' E 024°35'0 0.0
2014-Nov-18 23:12N 36°47' E 024°35'0 0.0
2014-Nov-18 22:30N 36°47' E 024°35'0 0.0
2014-Nov-18 21:18N 36°47' E 024°35'0 0.0
2014-Nov-18 20:30N 36°47' E 024°35'0 0.0
2014-Nov-18 19:18N 36°47' E 024°35'0 0.0
2014-Nov-18 18:24N 36°47' E 024°35'0 0.0
2014-Nov-18 17:30N 36°47' E 024°35'0 0.0
2014-Nov-18 16:30N 36°47' E 024°35'0 0.0
2014-Nov-18 15:30N 36°47' E 024°35'0 0.0
2014-Nov-18 14:30N 36°47' E 024°35'0 0.0
2014-Nov-18 13:30N 36°47' E 024°35'3 2.6
2014-Nov-18 12:26N 36°46' E 024°32'3 1.0
2014-Nov-18 09:32N 36°47' E 024°35'0 0.0
2014-Nov-18 08:18N 36°47' E 024°35'0 0.0
2014-Nov-18 07:30N 36°47' E 024°35'0 0.0
2014-Nov-18 06:30N 36°47' E 024°35'1 1.0
2014-Nov-18 05:33N 36°46' E 024°34'1 0.9
2014-Nov-18 04:32N 36°47' E 024°35'0 0.0
2014-Nov-18 03:26N 36°47' E 024°35'0 0.0
2014-Nov-18 02:32N 36°47' E 024°35'0 0.0
2014-Nov-18 01:32N 36°47' E 024°35'0 0.0
2014-Nov-18 00:32N 36°47' E 024°35'0 0.0
2014-Nov-17 23:20N 36°47' E 024°35'0 0.0
2014-Nov-17 22:14N 36°47' E 024°35'0 0.0
2014-Nov-17 21:32N 36°47' E 024°35'0 0.0
2014-Nov-17 20:32N 36°47' E 024°35'0 0.0
2014-Nov-17 19:32N 36°47' E 024°35'0 0.0
2014-Nov-17 18:32N 36°47' E 024°35'0 0.0
2014-Nov-17 17:32N 36°47' E 024°35'0 0.0
2014-Nov-17 16:32N 36°47' E 024°35'0 0.0
2014-Nov-17 15:32N 36°47' E 024°35'0 0.0
2014-Nov-17 14:32N 36°47' E 024°35'0 0.0
2014-Nov-17 13:26N 36°47' E 024°35'3 2.9
2014-Nov-17 12:28N 36°46' E 024°32'3 3.0
2014-Nov-17 11:32N 36°47' E 024°35'0 0.0
2014-Nov-17 10:26N 36°47' E 024°35'0 0.0
2014-Nov-17 09:32N 36°47' E 024°35'0 0.2
2014-Nov-17 08:33N 36°47' E 024°35'0 0.2
2014-Nov-17 07:31N 36°47' E 024°35'0 0.0
2014-Nov-17 06:25N 36°47' E 024°35'1 1.2
2014-Nov-17 05:33N 36°46' E 024°34'1 0.9
2014-Nov-17 04:29N 36°47' E 024°35'0 0.0
2014-Nov-17 03:29N 36°47' E 024°35'0 0.0
2014-Nov-17 02:29N 36°47' E 024°35'0 0.0
2014-Nov-17 01:29N 36°47' E 024°35'0 0.0
2014-Nov-17 00:29N 36°47' E 024°35'0 0.0
2014-Nov-16 23:29N 36°47' E 024°35'0 0.0
2014-Nov-16 22:29N 36°47' E 024°35'0 0.0
2014-Nov-16 21:23N 36°47' E 024°35'0 0.0
2014-Nov-16 20:29N 36°47' E 024°35'0 0.0
2014-Nov-16 19:29N 36°47' E 024°35'0 0.0
2014-Nov-16 18:29N 36°47' E 024°35'0 0.0
2014-Nov-16 17:29N 36°47' E 024°35'0 0.0
2014-Nov-16 16:29N 36°47' E 024°35'0 0.0
2014-Nov-16 15:30N 36°47' E 024°35'0 0.2
2014-Nov-16 14:33N 36°47' E 024°35'0 0.2
2014-Nov-16 13:33N 36°47' E 024°35'3 2.5
2014-Nov-16 12:27N 36°46' E 024°32'3 2.9
2014-Nov-16 11:28N 36°47' E 024°35'0 0.0
2014-Nov-16 10:28N 36°47' E 024°35'0 0.0
2014-Nov-16 09:28N 36°47' E 024°35'0 0.1
2014-Nov-16 08:33N 36°47' E 024°35'0 0.1
2014-Nov-16 07:25N 36°47' E 024°35'0 0.0
2014-Nov-16 06:32N 36°47' E 024°35'0 0.0
2014-Nov-16 05:32N 36°47' E 024°35'0 0.0
2014-Nov-16 04:32N 36°47' E 024°35'0 0.0
2014-Nov-16 03:25N 36°47' E 024°35'0 0.0
2014-Nov-16 02:32N 36°47' E 024°35'0 0.0
2014-Nov-16 01:32N 36°47' E 024°35'0 0.0
2014-Nov-16 00:32N 36°47' E 024°35'0 0.0
2014-Nov-15 23:31N 36°47' E 024°35'0 0.0
2014-Nov-15 22:32N 36°47' E 024°35'0 0.0
2014-Nov-15 21:32N 36°47' E 024°35'0 0.0
2014-Nov-15 20:32N 36°47' E 024°35'0 0.0
2014-Nov-15 19:32N 36°47' E 024°35'0 0.0
2014-Nov-15 18:31N 36°47' E 024°35'0 0.0
2014-Nov-15 17:32N 36°47' E 024°35'0 0.0
2014-Nov-15 16:32N 36°47' E 024°35'0 0.0
2014-Nov-15 15:32N 36°47' E 024°35'0 0.0
2014-Nov-15 14:30N 36°47' E 024°35'0 0.0
2014-Nov-15 13:25N 36°47' E 024°35'0 0.0
2014-Nov-15 12:25N 36°47' E 024°35'0 0.0
2014-Nov-15 11:31N 36°47' E 024°35'0 0.0
2014-Nov-15 10:19N 36°47' E 024°35'0 0.0
2014-Nov-15 09:33N 36°47' E 024°35'0 0.1
2014-Nov-15 08:33N 36°47' E 024°35'0 0.1
2014-Nov-15 07:28N 36°47' E 024°35'0 0.0
2014-Nov-15 06:28N 36°47' E 024°35'0 0.0
2014-Nov-15 05:28N 36°47' E 024°35'0 0.0
2014-Nov-15 04:33N 36°47' E 024°35'0 0.0
2014-Nov-15 03:28N 36°47' E 024°35'0 0.0
2014-Nov-15 02:31N 36°47' E 024°35'0 0.0
2014-Nov-15 01:22N 36°47' E 024°35'  
Track history (hours):
 
Tides and Currents Weather Stations Pressure Air Temp Water Temp Dewpoint Dewpoint Depression Visibility Wind Speed Wind Dir Waves Ship Positions

Panagia Faneromeni

Last reported at 2014-Nov-25 00:30 UTC. Time now 2014-Nov-25 00:44 UTC.
Position N 36°47' E 024°35'.

Length 33 m; draft 2 m.

Type: Ship. MMSI: 237071900.

Date/timePositionNaut miles runAvg speedWind from/ knotsBaromVisibWave heightAir tempDewpointWater temp
2014-Nov-25 00:30N 36°47' E 024°35'0 0.0
2014-Nov-24 23:23N 36°47' E 024°35'0 0.0
2014-Nov-24 22:05N 36°47' E 024°35'0 0.0
2014-Nov-24 21:11N 36°47' E 024°35'0 0.0
2014-Nov-24 20:30N 36°47' E 024°35'0 0.0
2014-Nov-24 19:29N 36°47' E 024°35'0 0.0
2014-Nov-24 18:30N 36°47' E 024°35'0 0.0
2014-Nov-24 17:29N 36°47' E 024°35'0 0.0
2014-Nov-24 16:30N 36°47' E 024°35'0 0.0
2014-Nov-24 15:29N 36°47' E 024°35'0 0.0
2014-Nov-24 14:24N 36°47' E 024°35'0 0.0
2014-Nov-24 13:29N 36°47' E 024°35'0 0.0
2014-Nov-24 12:29N 36°47' E 024°35'0 0.0
2014-Nov-24 11:29N 36°47' E 024°35'0 0.0
2014-Nov-24 10:18N 36°47' E 024°35'0 0.0
2014-Nov-24 09:29N 36°47' E 024°35'0 0.0
2014-Nov-24 08:32N 36°47' E 024°35'0 0.0
2014-Nov-24 07:33N 36°47' E 024°35'0 0.0
2014-Nov-24 06:29N 36°47' E 024°35'0 0.0
2014-Nov-24 05:29N 36°47' E 024°35'0 0.0
2014-Nov-24 04:30N 36°47' E 024°35'0 0.0
2014-Nov-24 03:30N 36°47' E 024°35'0 0.0
2014-Nov-24 02:23N 36°47' E 024°35'0 0.0
2014-Nov-24 01:29N 36°47' E 024°35'0 0.0
2014-Nov-24 00:24N 36°47' E 024°35'0 0.0
2014-Nov-23 23:30N 36°47' E 024°35'0 0.0
2014-Nov-23 22:30N 36°47' E 024°35'0 0.0
2014-Nov-23 21:23N 36°47' E 024°35'0 0.0
2014-Nov-23 20:23N 36°47' E 024°35'0 0.0
2014-Nov-23 19:29N 36°47' E 024°35'0 0.0
2014-Nov-23 18:29N 36°47' E 024°35'0 0.0
2014-Nov-23 17:24N 36°47' E 024°35'0 0.0
2014-Nov-23 16:18N 36°47' E 024°35'0 0.0
2014-Nov-23 14:11N 36°47' E 024°35'2 1.2
2014-Nov-23 12:20N 36°46' E 024°32'2 2.8
2014-Nov-23 11:33N 36°47' E 024°35'0 0.0
2014-Nov-23 07:26N 36°47' E 024°35'0 0.0
2014-Nov-23 06:13N 36°47' E 024°35'0 0.0
2014-Nov-23 04:24N 36°47' E 024°35'0 0.0
2014-Nov-23 02:18N 36°47' E 024°35'0 0.0
2014-Nov-23 00:31N 36°47' E 024°35'0 0.0
2014-Nov-22 23:24N 36°47' E 024°35'0 0.0
2014-Nov-22 19:31N 36°47' E 024°35'0 0.0
2014-Nov-22 18:06N 36°47' E 024°35'0 0.0
2014-Nov-22 17:25N 36°47' E 024°35'0 0.0
2014-Nov-22 16:06N 36°47' E 024°35'0 0.0
2014-Nov-22 15:30N 36°47' E 024°35'0 0.2
2014-Nov-22 14:33N 36°47' E 024°35'0 0.2
2014-Nov-22 13:31N 36°47' E 024°35'0 0.0
2014-Nov-22 12:30N 36°47' E 024°35'0 0.0
2014-Nov-22 11:30N 36°47' E 024°35'0 0.0
2014-Nov-22 10:24N 36°47' E 024°35'0 0.0
2014-Nov-22 09:30N 36°47' E 024°35'0 0.0
2014-Nov-22 08:20N 36°47' E 024°35'0 0.0
2014-Nov-22 07:27N 36°47' E 024°35'0 0.0
2014-Nov-22 06:15N 36°47' E 024°35'0 0.0
2014-Nov-22 05:32N 36°47' E 024°35'0 0.0
2014-Nov-22 03:26N 36°47' E 024°35'0 0.0
2014-Nov-22 02:32N 36°47' E 024°35'0 0.0
2014-Nov-22 01:32N 36°47' E 024°35'0 0.0
2014-Nov-21 23:11N 36°47' E 024°35'0 0.0
2014-Nov-21 22:26N 36°47' E 024°35'0 0.0
2014-Nov-21 21:32N 36°47' E 024°35'0 0.0
2014-Nov-21 20:14N 36°47' E 024°35'0 0.0
2014-Nov-21 19:27N 36°47' E 024°35'0 0.0
2014-Nov-21 17:08N 36°47' E 024°35'0 0.0
2014-Nov-21 15:32N 36°47' E 024°35'0 0.0
2014-Nov-21 14:33N 36°47' E 024°35'0 0.0
2014-Nov-21 13:33N 36°47' E 024°35'3 2.4
2014-Nov-21 12:25N 36°46' E 024°32'3 3.1
2014-Nov-21 11:33N 36°47' E 024°35'0 0.0
2014-Nov-21 10:26N 36°47' E 024°35'0 0.0
2014-Nov-21 09:28N 36°47' E 024°35'0 0.0
2014-Nov-21 08:26N 36°47' E 024°35'0 0.0
2014-Nov-21 07:32N 36°47' E 024°35'0 0.0
2014-Nov-21 06:20N 36°47' E 024°35'1 1.7
2014-Nov-21 05:30N 36°46' E 024°33'1 1.4
2014-Nov-21 04:26N 36°47' E 024°35'0 0.0
2014-Nov-21 03:20N 36°47' E 024°35'0 0.0
2014-Nov-21 00:32N 36°47' E 024°35'0 0.0
2014-Nov-20 23:20N 36°47' E 024°35'0 0.0
2014-Nov-20 22:20N 36°47' E 024°35'0 0.0
2014-Nov-20 21:31N 36°47' E 024°35'0 0.0
2014-Nov-20 20:19N 36°47' E 024°35'0 0.0
2014-Nov-20 19:08N 36°47' E 024°35'0 0.0
2014-Nov-20 18:32N 36°47' E 024°35'0 0.0
2014-Nov-20 17:26N 36°47' E 024°35'0 0.0
2014-Nov-20 16:31N 36°47' E 024°35'0 0.1
2014-Nov-20 15:29N 36°47' E 024°35'0 0.1
2014-Nov-20 14:33N 36°47' E 024°35'0 0.2
2014-Nov-20 13:31N 36°47' E 024°35'3 2.3
2014-Nov-20 12:24N 36°46' E 024°32'3 3.1
2014-Nov-20 11:33N 36°47' E 024°35'0 0.1
2014-Nov-20 09:27N 36°47' E 024°35'0 0.0
2014-Nov-20 08:33N 36°47' E 024°35'0 0.2
2014-Nov-20 07:16N 36°47' E 024°35'0 0.0
2014-Nov-20 06:28N 36°47' E 024°35'1 1.1
2014-Nov-20 05:33N 36°46' E 024°34'1 1.0
2014-Nov-20 04:31N 36°47' E 024°35'3 2.9
2014-Nov-20 03:33N 36°46' E 024°32'0 0.0
2014-Nov-20 02:34N 36°46' E 024°32'0 0.0
2014-Nov-20 01:28N 36°46' E 024°32'0 0.0
2014-Nov-19 22:27N 36°46' E 024°32'0 0.0
2014-Nov-19 21:33N 36°46' E 024°32'0 0.0
2014-Nov-19 20:33N 36°46' E 024°32'0 0.0
2014-Nov-19 19:28N 36°46' E 024°32'0 0.0
2014-Nov-19 18:28N 36°46' E 024°32'0 0.0
2014-Nov-19 17:27N 36°46' E 024°32'0 0.0
2014-Nov-19 16:33N 36°46' E 024°32'0 0.0
2014-Nov-19 15:27N 36°46' E 024°32'0 0.0
2014-Nov-19 14:33N 36°46' E 024°32'1 0.8
2014-Nov-19 13:31N 36°46' E 024°33'1 1.0
2014-Nov-19 12:33N 36°46' E 024°32'3 2.7
2014-Nov-19 11:30N 36°47' E 024°35'0 0.0
2014-Nov-19 10:24N 36°47' E 024°35'1 0.6
2014-Nov-19 09:26N 36°47' E 024°34'0 0.1
2014-Nov-19 05:33N 36°46' E 024°34'1 1.0
2014-Nov-19 04:30N 36°47' E 024°35'0 0.0
2014-Nov-19 03:30N 36°47' E 024°35'0 0.0
2014-Nov-19 02:24N 36°47' E 024°35'0 0.0
2014-Nov-19 01:30N 36°47' E 024°35'0 0.0
2014-Nov-19 00:30N 36°47' E 024°35'0 0.0
2014-Nov-18 23:12N 36°47' E 024°35'0 0.0
2014-Nov-18 22:30N 36°47' E 024°35'0 0.0
2014-Nov-18 21:18N 36°47' E 024°35'0 0.0
2014-Nov-18 20:30N 36°47' E 024°35'0 0.0
2014-Nov-18 19:18N 36°47' E 024°35'0 0.0
2014-Nov-18 18:24N 36°47' E 024°35'0 0.0
2014-Nov-18 17:30N 36°47' E 024°35'0 0.0
2014-Nov-18 16:30N 36°47' E 024°35'0 0.0
2014-Nov-18 15:30N 36°47' E 024°35'0 0.0
2014-Nov-18 14:30N 36°47' E 024°35'0 0.0
2014-Nov-18 13:30N 36°47' E 024°35'3 2.6
2014-Nov-18 12:26N 36°46' E 024°32'3 1.0
2014-Nov-18 09:32N 36°47' E 024°35'0 0.0
2014-Nov-18 08:18N 36°47' E 024°35'0 0.0
2014-Nov-18 07:30N 36°47' E 024°35'0 0.0
2014-Nov-18 06:30N 36°47' E 024°35'1 1.0
2014-Nov-18 05:33N 36°46' E 024°34'1 0.9
2014-Nov-18 04:32N 36°47' E 024°35'0 0.0
2014-Nov-18 03:26N 36°47' E 024°35'0 0.0
2014-Nov-18 02:32N 36°47' E 024°35'0 0.0
2014-Nov-18 01:32N 36°47' E 024°35'0 0.0
2014-Nov-18 00:32N 36°47' E 024°35'0 0.0
2014-Nov-17 23:20N 36°47' E 024°35'0 0.0
2014-Nov-17 22:14N 36°47' E 024°35'0 0.0
2014-Nov-17 21:32N 36°47' E 024°35'0 0.0
2014-Nov-17 20:32N 36°47' E 024°35'0 0.0
2014-Nov-17 19:32N 36°47' E 024°35'0 0.0
2014-Nov-17 18:32N 36°47' E 024°35'0 0.0
2014-Nov-17 17:32N 36°47' E 024°35'0 0.0
2014-Nov-17 16:32N 36°47' E 024°35'0 0.0
2014-Nov-17 15:32N 36°47' E 024°35'0 0.0
2014-Nov-17 14:32N 36°47' E 024°35'0 0.0
2014-Nov-17 13:26N 36°47' E 024°35'3 2.9
2014-Nov-17 12:28N 36°46' E 024°32'3 3.0
2014-Nov-17 11:32N 36°47' E 024°35'0 0.0
2014-Nov-17 10:26N 36°47' E 024°35'0 0.0
2014-Nov-17 09:32N 36°47' E 024°35'0 0.2
2014-Nov-17 08:33N 36°47' E 024°35'0 0.2
2014-Nov-17 07:31N 36°47' E 024°35'0 0.0
2014-Nov-17 06:25N 36°47' E 024°35'1 1.2
2014-Nov-17 05:33N 36°46' E 024°34'1 0.9
2014-Nov-17 04:29N 36°47' E 024°35'0 0.0
2014-Nov-17 03:29N 36°47' E 024°35'0 0.0
2014-Nov-17 02:29N 36°47' E 024°35'0 0.0
2014-Nov-17 01:29N 36°47' E 024°35'0 0.0
2014-Nov-17 00:29N 36°47' E 024°35'0 0.0
2014-Nov-16 23:29N 36°47' E 024°35'0 0.0
2014-Nov-16 22:29N 36°47' E 024°35'0 0.0
2014-Nov-16 21:23N 36°47' E 024°35'0 0.0
2014-Nov-16 20:29N 36°47' E 024°35'0 0.0
2014-Nov-16 19:29N 36°47' E 024°35'0 0.0
2014-Nov-16 18:29N 36°47' E 024°35'0 0.0
2014-Nov-16 17:29N 36°47' E 024°35'0 0.0
2014-Nov-16 16:29N 36°47' E 024°35'0 0.0
2014-Nov-16 15:30N 36°47' E 024°35'0 0.2
2014-Nov-16 14:33N 36°47' E 024°35'0 0.2
2014-Nov-16 13:33N 36°47' E 024°35'3 2.5
2014-Nov-16 12:27N 36°46' E 024°32'3 2.9
2014-Nov-16 11:28N 36°47' E 024°35'0 0.0
2014-Nov-16 10:28N 36°47' E 024°35'0 0.0
2014-Nov-16 09:28N 36°47' E 024°35'0 0.1
2014-Nov-16 08:33N 36°47' E 024°35'0 0.1
2014-Nov-16 07:25N 36°47' E 024°35'0 0.0
2014-Nov-16 06:32N 36°47' E 024°35'0 0.0
2014-Nov-16 05:32N 36°47' E 024°35'0 0.0
2014-Nov-16 04:32N 36°47' E 024°35'0 0.0
2014-Nov-16 03:25N 36°47' E 024°35'0 0.0
2014-Nov-16 02:32N 36°47' E 024°35'0 0.0
2014-Nov-16 01:32N 36°47' E 024°35'0 0.0
2014-Nov-16 00:32N 36°47' E 024°35'0 0.0
2014-Nov-15 23:31N 36°47' E 024°35'0 0.0
2014-Nov-15 22:32N 36°47' E 024°35'0 0.0
2014-Nov-15 21:32N 36°47' E 024°35'0 0.0
2014-Nov-15 20:32N 36°47' E 024°35'0 0.0
2014-Nov-15 19:32N 36°47' E 024°35'0 0.0
2014-Nov-15 18:31N 36°47' E 024°35'0 0.0
2014-Nov-15 17:32N 36°47' E 024°35'0 0.0
2014-Nov-15 16:32N 36°47' E 024°35'0 0.0
2014-Nov-15 15:32N 36°47' E 024°35'0 0.0
2014-Nov-15 14:30N 36°47' E 024°35'0 0.0
2014-Nov-15 13:25N 36°47' E 024°35'0 0.0
2014-Nov-15 12:25N 36°47' E 024°35'0 0.0
2014-Nov-15 11:31N 36°47' E 024°35'0 0.0
2014-Nov-15 10:19N 36°47' E 024°35'0 0.0
2014-Nov-15 09:33N 36°47' E 024°35'0 0.1
2014-Nov-15 08:33N 36°47' E 024°35'0 0.1
2014-Nov-15 07:28N 36°47' E 024°35'0 0.0
2014-Nov-15 06:28N 36°47' E 024°35'0 0.0
2014-Nov-15 05:28N 36°47' E 024°35'0 0.0
2014-Nov-15 04:33N 36°47' E 024°35'0 0.0
2014-Nov-15 03:28N 36°47' E 024°35'0 0.0
2014-Nov-15 02:31N 36°47' E 024°35'0 0.0
2014-Nov-15 01:22N 36°47' E 024°35'  

Dump ship's entire track history